sensor_id;sensor_type;location;lat;lon;timestamp;P1;durP1;ratioP1;P2;durP2;ratioP2
1721;SDS011;858;53.190;8.596;2024-01-11T00:00:38;57.72;;;29.20;;
1721;SDS011;858;53.190;8.596;2024-01-11T00:03:05;66.53;;;29.27;;
1721;SDS011;858;53.190;8.596;2024-01-11T00:05:31;64.50;;;29.35;;
1721;SDS011;858;53.190;8.596;2024-01-11T00:07:59;67.03;;;29.70;;
1721;SDS011;858;53.190;8.596;2024-01-11T00:10:25;63.03;;;28.20;;
1721;SDS011;858;53.190;8.596;2024-01-11T00:12:52;65.47;;;29.42;;
1721;SDS011;858;53.190;8.596;2024-01-11T00:15:19;56.05;;;27.48;;
1721;SDS011;858;53.190;8.596;2024-01-11T00:17:45;71.25;;;31.42;;
1721;SDS011;858;53.190;8.596;2024-01-11T00:20:12;64.93;;;31.13;;
1721;SDS011;858;53.190;8.596;2024-01-11T00:22:39;64.32;;;28.95;;
1721;SDS011;858;53.190;8.596;2024-01-11T00:25:07;61.85;;;30.50;;
1721;SDS011;858;53.190;8.596;2024-01-11T00:27:33;61.50;;;26.83;;
1721;SDS011;858;53.190;8.596;2024-01-11T00:30:00;64.88;;;29.92;;
1721;SDS011;858;53.190;8.596;2024-01-11T00:32:26;53.45;;;29.30;;
1721;SDS011;858;53.190;8.596;2024-01-11T00:34:53;59.53;;;28.63;;
1721;SDS011;858;53.190;8.596;2024-01-11T00:37:19;55.65;;;29.40;;
1721;SDS011;858;53.190;8.596;2024-01-11T00:39:46;62.60;;;29.25;;
1721;SDS011;858;53.190;8.596;2024-01-11T00:42:14;60.60;;;26.02;;
1721;SDS011;858;53.190;8.596;2024-01-11T00:44:40;59.33;;;29.03;;
1721;SDS011;858;53.190;8.596;2024-01-11T00:47:07;61.25;;;28.08;;
1721;SDS011;858;53.190;8.596;2024-01-11T00:49:33;52.53;;;25.63;;
1721;SDS011;858;53.190;8.596;2024-01-11T00:52:00;58.47;;;28.05;;
1721;SDS011;858;53.190;8.596;2024-01-11T00:54:26;58.05;;;29.45;;
1721;SDS011;858;53.190;8.596;2024-01-11T00:56:53;59.83;;;28.42;;
1721;SDS011;858;53.190;8.596;2024-01-11T00:59:21;59.17;;;28.30;;
1721;SDS011;858;53.190;8.596;2024-01-11T01:01:47;62.15;;;29.10;;
1721;SDS011;858;53.190;8.596;2024-01-11T01:04:14;61.75;;;29.70;;
1721;SDS011;858;53.190;8.596;2024-01-11T01:06:41;69.68;;;29.05;;
1721;SDS011;858;53.190;8.596;2024-01-11T01:09:07;60.42;;;26.70;;
1721;SDS011;858;53.190;8.596;2024-01-11T01:11:34;61.38;;;29.42;;
1721;SDS011;858;53.190;8.596;2024-01-11T01:14:00;67.47;;;31.88;;
1721;SDS011;858;53.190;8.596;2024-01-11T01:16:28;68.32;;;29.52;;
1721;SDS011;858;53.190;8.596;2024-01-11T01:18:55;51.40;;;27.20;;
1721;SDS011;858;53.190;8.596;2024-01-11T01:21:21;65.20;;;30.10;;
1721;SDS011;858;53.190;8.596;2024-01-11T01:23:48;64.53;;;30.40;;
1721;SDS011;858;53.190;8.596;2024-01-11T01:26:14;66.68;;;28.10;;
1721;SDS011;858;53.190;8.596;2024-01-11T01:28:41;64.22;;;29.50;;
1721;SDS011;858;53.190;8.596;2024-01-11T01:31:07;64.50;;;28.70;;
1721;SDS011;858;53.190;8.596;2024-01-11T01:33:35;63.88;;;31.08;;
1721;SDS011;858;53.190;8.596;2024-01-11T01:36:02;63.55;;;29.83;;
1721;SDS011;858;53.190;8.596;2024-01-11T01:38:28;62.15;;;29.77;;
1721;SDS011;858;53.190;8.596;2024-01-11T01:40:55;55.63;;;27.15;;
1721;SDS011;858;53.190;8.596;2024-01-11T01:43:22;66.60;;;33.90;;
1721;SDS011;858;53.190;8.596;2024-01-11T01:45:50;63.53;;;29.30;;
1721;SDS011;858;53.190;8.596;2024-01-11T01:48:17;69.10;;;30.45;;
1721;SDS011;858;53.190;8.596;2024-01-11T01:50:45;63.20;;;27.92;;
1721;SDS011;858;53.190;8.596;2024-01-11T01:53:15;59.13;;;26.38;;
1721;SDS011;858;53.190;8.596;2024-01-11T01:55:42;65.75;;;29.30;;
1721;SDS011;858;53.190;8.596;2024-01-11T01:58:09;64.78;;;31.45;;
1721;SDS011;858;53.190;8.596;2024-01-11T02:00:35;66.18;;;29.67;;
1721;SDS011;858;53.190;8.596;2024-01-11T02:03:02;57.17;;;27.40;;
1721;SDS011;858;53.190;8.596;2024-01-11T02:05:28;71.30;;;29.45;;
1721;SDS011;858;53.190;8.596;2024-01-11T02:07:57;65.63;;;30.17;;
1721;SDS011;858;53.190;8.596;2024-01-11T02:10:24;85.25;;;33.13;;
1721;SDS011;858;53.190;8.596;2024-01-11T02:12:50;62.15;;;27.30;;
1721;SDS011;858;53.190;8.596;2024-01-11T02:15:17;59.70;;;28.88;;
1721;SDS011;858;53.190;8.596;2024-01-11T02:17:44;56.95;;;28.90;;
1721;SDS011;858;53.190;8.596;2024-01-11T02:20:10;69.70;;;32.88;;
1721;SDS011;858;53.190;8.596;2024-01-11T02:22:38;61.38;;;28.40;;
1721;SDS011;858;53.190;8.596;2024-01-11T02:25:08;69.95;;;30.42;;
1721;SDS011;858;53.190;8.596;2024-01-11T02:27:44;66.45;;;28.15;;
1721;SDS011;858;53.190;8.596;2024-01-11T02:30:11;64.60;;;27.42;;
1721;SDS011;858;53.190;8.596;2024-01-11T02:32:37;79.90;;;32.00;;
1721;SDS011;858;53.190;8.596;2024-01-11T02:35:05;63.30;;;31.10;;
1721;SDS011;858;53.190;8.596;2024-01-11T02:37:32;67.47;;;29.85;;
1721;SDS011;858;53.190;8.596;2024-01-11T02:39:59;75.95;;;28.25;;
1721;SDS011;858;53.190;8.596;2024-01-11T02:42:27;63.72;;;30.15;;
1721;SDS011;858;53.190;8.596;2024-01-11T02:44:53;67.70;;;28.88;;
1721;SDS011;858;53.190;8.596;2024-01-11T02:47:20;78.28;;;32.80;;
1721;SDS011;858;53.190;8.596;2024-01-11T02:49:48;64.78;;;28.80;;
1721;SDS011;858;53.190;8.596;2024-01-11T02:52:15;71.35;;;30.02;;
1721;SDS011;858;53.190;8.596;2024-01-11T02:54:41;62.92;;;29.42;;
1721;SDS011;858;53.190;8.596;2024-01-11T02:57:08;71.70;;;30.20;;
1721;SDS011;858;53.190;8.596;2024-01-11T02:59:36;66.43;;;28.65;;
1721;SDS011;858;53.190;8.596;2024-01-11T03:02:02;74.25;;;29.85;;
1721;SDS011;858;53.190;8.596;2024-01-11T03:04:29;66.88;;;28.25;;
1721;SDS011;858;53.190;8.596;2024-01-11T03:06:55;75.50;;;31.88;;
1721;SDS011;858;53.190;8.596;2024-01-11T03:09:22;67.05;;;31.00;;
1721;SDS011;858;53.190;8.596;2024-01-11T03:11:48;70.95;;;30.17;;
1721;SDS011;858;53.190;8.596;2024-01-11T03:14:15;80.53;;;32.15;;
1721;SDS011;858;53.190;8.596;2024-01-11T03:16:43;79.55;;;30.92;;
1721;SDS011;858;53.190;8.596;2024-01-11T03:19:10;64.55;;;29.30;;
1721;SDS011;858;53.190;8.596;2024-01-11T03:21:41;65.80;;;30.17;;
1721;SDS011;858;53.190;8.596;2024-01-11T03:24:07;55.45;;;29.90;;
1721;SDS011;858;53.190;8.596;2024-01-11T03:26:34;61.72;;;28.27;;
1721;SDS011;858;53.190;8.596;2024-01-11T03:29:01;62.05;;;29.95;;
1721;SDS011;858;53.190;8.596;2024-01-11T03:31:27;65.13;;;29.38;;
1721;SDS011;858;53.190;8.596;2024-01-11T03:33:55;63.13;;;27.35;;
1721;SDS011;858;53.190;8.596;2024-01-11T03:36:23;60.10;;;28.40;;
1721;SDS011;858;53.190;8.596;2024-01-11T03:38:49;60.28;;;26.30;;
1721;SDS011;858;53.190;8.596;2024-01-11T03:41:16;56.45;;;27.92;;
1721;SDS011;858;53.190;8.596;2024-01-11T03:43:42;55.22;;;25.58;;
1721;SDS011;858;53.190;8.596;2024-01-11T03:46:09;55.13;;;26.58;;
1721;SDS011;858;53.190;8.596;2024-01-11T03:48:35;58.63;;;26.90;;
1721;SDS011;858;53.190;8.596;2024-01-11T03:51:04;50.90;;;25.23;;
1721;SDS011;858;53.190;8.596;2024-01-11T03:53:34;49.83;;;22.08;;
1721;SDS011;858;53.190;8.596;2024-01-11T03:56:00;58.67;;;25.92;;
1721;SDS011;858;53.190;8.596;2024-01-11T03:58:27;54.08;;;23.40;;
1721;SDS011;858;53.190;8.596;2024-01-11T04:00:53;48.85;;;21.55;;
1721;SDS011;858;53.190;8.596;2024-01-11T04:03:20;51.58;;;24.10;;
1721;SDS011;858;53.190;8.596;2024-01-11T04:05:47;42.63;;;20.48;;
1721;SDS011;858;53.190;8.596;2024-01-11T04:08:16;46.58;;;23.45;;
1721;SDS011;858;53.190;8.596;2024-01-11T04:10:42;42.83;;;23.42;;
1721;SDS011;858;53.190;8.596;2024-01-11T04:13:08;44.58;;;19.55;;
1721;SDS011;858;53.190;8.596;2024-01-11T04:15:35;50.47;;;22.10;;
1721;SDS011;858;53.190;8.596;2024-01-11T04:18:02;43.30;;;22.50;;
1721;SDS011;858;53.190;8.596;2024-01-11T04:20:28;53.75;;;22.27;;
1721;SDS011;858;53.190;8.596;2024-01-11T04:22:55;60.75;;;21.95;;
1721;SDS011;858;53.190;8.596;2024-01-11T04:25:24;61.28;;;20.73;;
1721;SDS011;858;53.190;8.596;2024-01-11T04:27:50;47.03;;;23.83;;
1721;SDS011;858;53.190;8.596;2024-01-11T04:30:17;44.35;;;21.00;;
1721;SDS011;858;53.190;8.596;2024-01-11T04:32:43;56.08;;;25.88;;
1721;SDS011;858;53.190;8.596;2024-01-11T04:35:09;56.67;;;24.73;;
1721;SDS011;858;53.190;8.596;2024-01-11T04:37:36;48.80;;;24.10;;
1721;SDS011;858;53.190;8.596;2024-01-11T04:40:03;55.72;;;24.60;;
1721;SDS011;858;53.190;8.596;2024-01-11T04:42:31;53.17;;;25.23;;
1721;SDS011;858;53.190;8.596;2024-01-11T04:44:58;57.55;;;26.73;;
1721;SDS011;858;53.190;8.596;2024-01-11T04:47:24;64.18;;;26.08;;
1721;SDS011;858;53.190;8.596;2024-01-11T04:49:51;57.72;;;25.58;;
1721;SDS011;858;53.190;8.596;2024-01-11T04:52:17;59.58;;;27.70;;
1721;SDS011;858;53.190;8.596;2024-01-11T04:54:44;68.90;;;25.55;;
1721;SDS011;858;53.190;8.596;2024-01-11T04:57:10;54.70;;;25.25;;
1721;SDS011;858;53.190;8.596;2024-01-11T04:59:38;58.65;;;26.67;;
1721;SDS011;858;53.190;8.596;2024-01-11T05:02:07;67.68;;;23.70;;
1721;SDS011;858;53.190;8.596;2024-01-11T05:04:33;56.47;;;23.35;;
1721;SDS011;858;53.190;8.596;2024-01-11T05:07:00;57.58;;;24.48;;
1721;SDS011;858;53.190;8.596;2024-01-11T05:09:27;56.85;;;25.55;;
1721;SDS011;858;53.190;8.596;2024-01-11T05:11:53;60.58;;;26.10;;
1721;SDS011;858;53.190;8.596;2024-01-11T05:14:20;63.30;;;25.23;;
1721;SDS011;858;53.190;8.596;2024-01-11T05:16:48;63.00;;;25.67;;
1721;SDS011;858;53.190;8.596;2024-01-11T05:19:15;60.42;;;25.63;;
1721;SDS011;858;53.190;8.596;2024-01-11T05:21:44;54.50;;;22.85;;
1721;SDS011;858;53.190;8.596;2024-01-11T05:24:11;58.85;;;24.00;;
1721;SDS011;858;53.190;8.596;2024-01-11T05:26:38;61.25;;;25.13;;
1721;SDS011;858;53.190;8.596;2024-01-11T05:29:05;70.35;;;28.92;;
1721;SDS011;858;53.190;8.596;2024-01-11T05:31:32;68.82;;;27.40;;
1721;SDS011;858;53.190;8.596;2024-01-11T05:34:00;64.47;;;27.27;;
1721;SDS011;858;53.190;8.596;2024-01-11T05:36:27;59.08;;;26.63;;
1721;SDS011;858;53.190;8.596;2024-01-11T05:38:53;70.55;;;29.83;;
1721;SDS011;858;53.190;8.596;2024-01-11T05:41:19;67.80;;;29.63;;
1721;SDS011;858;53.190;8.596;2024-01-11T05:43:46;67.20;;;27.73;;
1721;SDS011;858;53.190;8.596;2024-01-11T05:46:12;70.70;;;29.88;;
1721;SDS011;858;53.190;8.596;2024-01-11T05:48:39;79.03;;;31.95;;
1721;SDS011;858;53.190;8.596;2024-01-11T05:51:07;68.47;;;28.10;;
1721;SDS011;858;53.190;8.596;2024-01-11T05:53:34;75.20;;;30.23;;
1721;SDS011;858;53.190;8.596;2024-01-11T05:56:01;77.20;;;30.08;;
1721;SDS011;858;53.190;8.596;2024-01-11T05:58:28;82.65;;;30.23;;
1721;SDS011;858;53.190;8.596;2024-01-11T06:00:54;72.45;;;27.75;;
1721;SDS011;858;53.190;8.596;2024-01-11T06:03:22;81.45;;;29.70;;
1721;SDS011;858;53.190;8.596;2024-01-11T06:05:48;72.50;;;27.63;;
1721;SDS011;858;53.190;8.596;2024-01-11T06:08:16;68.88;;;28.42;;
1721;SDS011;858;53.190;8.596;2024-01-11T06:10:43;91.07;;;31.98;;
1721;SDS011;858;53.190;8.596;2024-01-11T06:13:09;84.50;;;30.05;;
1721;SDS011;858;53.190;8.596;2024-01-11T06:15:36;89.47;;;31.88;;
1721;SDS011;858;53.190;8.596;2024-01-11T06:18:02;87.33;;;32.70;;
1721;SDS011;858;53.190;8.596;2024-01-11T06:20:29;72.43;;;32.40;;
1721;SDS011;858;53.190;8.596;2024-01-11T06:22:56;92.38;;;31.83;;
1721;SDS011;858;53.190;8.596;2024-01-11T06:25:24;78.90;;;32.47;;
1721;SDS011;858;53.190;8.596;2024-01-11T06:27:50;108.28;;;34.80;;
1721;SDS011;858;53.190;8.596;2024-01-11T06:30:17;90.35;;;35.25;;
1721;SDS011;858;53.190;8.596;2024-01-11T06:32:46;86.63;;;34.88;;
1721;SDS011;858;53.190;8.596;2024-01-11T06:35:13;91.90;;;34.23;;
1721;SDS011;858;53.190;8.596;2024-01-11T06:37:40;92.43;;;33.33;;
1721;SDS011;858;53.190;8.596;2024-01-11T06:40:06;97.40;;;36.10;;
1721;SDS011;858;53.190;8.596;2024-01-11T06:42:35;102.13;;;34.80;;
1721;SDS011;858;53.190;8.596;2024-01-11T06:45:01;89.07;;;36.00;;
1721;SDS011;858;53.190;8.596;2024-01-11T06:47:28;102.10;;;35.88;;
1721;SDS011;858;53.190;8.596;2024-01-11T06:49:55;93.97;;;33.13;;
1721;SDS011;858;53.190;8.596;2024-01-11T06:52:20;82.50;;;32.53;;
1721;SDS011;858;53.190;8.596;2024-01-11T06:54:46;97.00;;;36.67;;
1721;SDS011;858;53.190;8.596;2024-01-11T06:57:13;76.37;;;30.87;;
1721;SDS011;858;53.190;8.596;2024-01-11T06:59:43;86.40;;;32.90;;
1721;SDS011;858;53.190;8.596;2024-01-11T07:02:11;86.30;;;35.27;;
1721;SDS011;858;53.190;8.596;2024-01-11T07:04:38;79.53;;;31.50;;
1721;SDS011;858;53.190;8.596;2024-01-11T07:07:04;93.70;;;33.70;;
1721;SDS011;858;53.190;8.596;2024-01-11T07:09:31;91.37;;;31.40;;
1721;SDS011;858;53.190;8.596;2024-01-11T07:11:57;93.17;;;34.60;;
1721;SDS011;858;53.190;8.596;2024-01-11T07:14:25;98.03;;;33.63;;
1721;SDS011;858;53.190;8.596;2024-01-11T07:16:53;85.30;;;32.90;;
1721;SDS011;858;53.190;8.596;2024-01-11T07:19:20;87.97;;;33.57;;
1721;SDS011;858;53.190;8.596;2024-01-11T07:21:48;85.13;;;32.93;;
1721;SDS011;858;53.190;8.596;2024-01-11T07:24:15;77.57;;;32.20;;
1721;SDS011;858;53.190;8.596;2024-01-11T07:26:43;89.13;;;32.70;;
1721;SDS011;858;53.190;8.596;2024-01-11T07:29:10;94.97;;;30.97;;
1721;SDS011;858;53.190;8.596;2024-01-11T07:31:36;83.63;;;33.00;;
1721;SDS011;858;53.190;8.596;2024-01-11T07:34:04;80.73;;;32.37;;
1721;SDS011;858;53.190;8.596;2024-01-11T07:36:31;85.33;;;32.07;;
1721;SDS011;858;53.190;8.596;2024-01-11T07:38:57;90.43;;;31.27;;
1721;SDS011;858;53.190;8.596;2024-01-11T07:41:25;86.87;;;30.90;;
1721;SDS011;858;53.190;8.596;2024-01-11T07:43:52;76.93;;;31.60;;
1721;SDS011;858;53.190;8.596;2024-01-11T07:46:23;105.03;;;38.20;;
1721;SDS011;858;53.190;8.596;2024-01-11T07:48:49;98.23;;;35.90;;
1721;SDS011;858;53.190;8.596;2024-01-11T07:51:18;85.07;;;32.67;;
1721;SDS011;858;53.190;8.596;2024-01-11T07:53:45;87.07;;;33.73;;
1721;SDS011;858;53.190;8.596;2024-01-11T07:56:12;84.50;;;33.27;;
1721;SDS011;858;53.190;8.596;2024-01-11T07:58:40;90.07;;;32.30;;
1721;SDS011;858;53.190;8.596;2024-01-11T08:01:06;107.20;;;36.63;;
1721;SDS011;858;53.190;8.596;2024-01-11T08:03:33;103.43;;;35.23;;
1721;SDS011;858;53.190;8.596;2024-01-11T08:06:00;108.80;;;37.37;;
1721;SDS011;858;53.190;8.596;2024-01-11T08:08:28;92.67;;;36.83;;
1721;SDS011;858;53.190;8.596;2024-01-11T08:10:56;107.43;;;39.10;;
1721;SDS011;858;53.190;8.596;2024-01-11T08:13:22;99.60;;;36.17;;
1721;SDS011;858;53.190;8.596;2024-01-11T08:15:49;94.33;;;34.53;;
1721;SDS011;858;53.190;8.596;2024-01-11T08:18:17;96.37;;;34.53;;
1721;SDS011;858;53.190;8.596;2024-01-11T08:20:44;108.67;;;40.67;;
1721;SDS011;858;53.190;8.596;2024-01-11T08:23:13;109.43;;;39.33;;
1721;SDS011;858;53.190;8.596;2024-01-11T08:25:41;100.40;;;39.27;;
1721;SDS011;858;53.190;8.596;2024-01-11T08:28:08;107.10;;;37.97;;
1721;SDS011;858;53.190;8.596;2024-01-11T08:30:34;94.77;;;35.97;;
1721;SDS011;858;53.190;8.596;2024-01-11T08:33:03;107.13;;;37.03;;
1721;SDS011;858;53.190;8.596;2024-01-11T08:35:30;114.77;;;40.50;;
1721;SDS011;858;53.190;8.596;2024-01-11T08:37:57;90.60;;;35.03;;
1721;SDS011;858;53.190;8.596;2024-01-11T08:40:24;100.87;;;40.00;;
1721;SDS011;858;53.190;8.596;2024-01-11T08:42:52;112.23;;;38.87;;
1721;SDS011;858;53.190;8.596;2024-01-11T08:45:19;112.43;;;41.73;;
1721;SDS011;858;53.190;8.596;2024-01-11T08:47:47;99.73;;;37.30;;
1721;SDS011;858;53.190;8.596;2024-01-11T08:50:14;101.57;;;37.00;;
1721;SDS011;858;53.190;8.596;2024-01-11T08:52:41;113.17;;;40.60;;
1721;SDS011;858;53.190;8.596;2024-01-11T08:55:08;110.00;;;39.60;;
1721;SDS011;858;53.190;8.596;2024-01-11T08:57:34;105.13;;;36.27;;
1721;SDS011;858;53.190;8.596;2024-01-11T09:00:04;108.97;;;37.27;;
1721;SDS011;858;53.190;8.596;2024-01-11T09:02:31;96.37;;;38.77;;
1721;SDS011;858;53.190;8.596;2024-01-11T09:04:57;90.10;;;36.70;;
1721;SDS011;858;53.190;8.596;2024-01-11T09:07:24;113.93;;;37.13;;
1721;SDS011;858;53.190;8.596;2024-01-11T09:09:50;111.03;;;39.70;;
1721;SDS011;858;53.190;8.596;2024-01-11T09:12:19;103.13;;;38.63;;
1721;SDS011;858;53.190;8.596;2024-01-11T09:14:46;110.87;;;41.43;;
1721;SDS011;858;53.190;8.596;2024-01-11T09:17:16;104.57;;;40.70;;
1721;SDS011;858;53.190;8.596;2024-01-11T09:19:43;113.00;;;39.60;;
1721;SDS011;858;53.190;8.596;2024-01-11T09:22:09;108.63;;;38.93;;
1721;SDS011;858;53.190;8.596;2024-01-11T09:24:36;97.67;;;36.80;;
1721;SDS011;858;53.190;8.596;2024-01-11T09:27:03;109.20;;;38.60;;
1721;SDS011;858;53.190;8.596;2024-01-11T09:29:29;92.50;;;34.40;;
1721;SDS011;858;53.190;8.596;2024-01-11T09:31:56;99.57;;;39.60;;
1721;SDS011;858;53.190;8.596;2024-01-11T09:34:24;105.13;;;39.17;;
1721;SDS011;858;53.190;8.596;2024-01-11T09:36:50;109.67;;;36.30;;
1721;SDS011;858;53.190;8.596;2024-01-11T09:39:17;95.47;;;36.60;;
1721;SDS011;858;53.190;8.596;2024-01-11T09:41:52;99.50;;;41.17;;
1721;SDS011;858;53.190;8.596;2024-01-11T09:44:18;105.23;;;38.20;;
1721;SDS011;858;53.190;8.596;2024-01-11T09:46:45;179.17;;;83.70;;
1721;SDS011;858;53.190;8.596;2024-01-11T09:49:12;129.60;;;55.10;;
1721;SDS011;858;53.190;8.596;2024-01-11T09:51:40;120.17;;;46.40;;
1721;SDS011;858;53.190;8.596;2024-01-11T09:54:08;156.93;;;77.33;;
1721;SDS011;858;53.190;8.596;2024-01-11T09:56:36;115.67;;;44.93;;
1721;SDS011;858;53.190;8.596;2024-01-11T09:59:03;92.00;;;34.87;;
1721;SDS011;858;53.190;8.596;2024-01-11T10:01:32;103.67;;;39.37;;
1721;SDS011;858;53.190;8.596;2024-01-11T10:03:59;92.40;;;37.80;;
1721;SDS011;858;53.190;8.596;2024-01-11T10:06:26;108.73;;;41.70;;
1721;SDS011;858;53.190;8.596;2024-01-11T10:08:55;96.50;;;37.27;;
1721;SDS011;858;53.190;8.596;2024-01-11T10:11:21;105.83;;;38.50;;
1721;SDS011;858;53.190;8.596;2024-01-11T10:13:48;99.70;;;41.87;;
1721;SDS011;858;53.190;8.596;2024-01-11T10:16:14;95.77;;;41.87;;
1721;SDS011;858;53.190;8.596;2024-01-11T10:18:41;112.33;;;41.70;;
1721;SDS011;858;53.190;8.596;2024-01-11T10:21:10;111.60;;;41.90;;
1721;SDS011;858;53.190;8.596;2024-01-11T10:23:37;97.90;;;37.03;;
1721;SDS011;858;53.190;8.596;2024-01-11T10:26:05;93.30;;;37.83;;
1721;SDS011;858;53.190;8.596;2024-01-11T10:28:32;101.57;;;36.37;;
1721;SDS011;858;53.190;8.596;2024-01-11T10:31:02;103.47;;;36.80;;
1721;SDS011;858;53.190;8.596;2024-01-11T10:33:33;108.10;;;38.13;;
1721;SDS011;858;53.190;8.596;2024-01-11T10:35:59;111.17;;;41.90;;
1721;SDS011;858;53.190;8.596;2024-01-11T10:38:26;84.73;;;36.23;;
1721;SDS011;858;53.190;8.596;2024-01-11T10:40:58;87.13;;;33.80;;
1721;SDS011;858;53.190;8.596;2024-01-11T10:43:27;115.70;;;43.10;;
1721;SDS011;858;53.190;8.596;2024-01-11T10:45:55;92.53;;;36.97;;
1721;SDS011;858;53.190;8.596;2024-01-11T10:48:28;101.10;;;38.77;;
1721;SDS011;858;53.190;8.596;2024-01-11T10:50:58;102.63;;;36.80;;
1721;SDS011;858;53.190;8.596;2024-01-11T10:53:28;109.73;;;42.37;;
1721;SDS011;858;53.190;8.596;2024-01-11T10:55:57;100.43;;;37.70;;
1721;SDS011;858;53.190;8.596;2024-01-11T10:58:26;115.10;;;42.60;;
1721;SDS011;858;53.190;8.596;2024-01-11T11:00:54;103.27;;;43.67;;
1721;SDS011;858;53.190;8.596;2024-01-11T11:03:21;98.77;;;39.60;;
1721;SDS011;858;53.190;8.596;2024-01-11T11:05:48;84.07;;;33.33;;
1721;SDS011;858;53.190;8.596;2024-01-11T11:08:15;88.33;;;37.70;;
1721;SDS011;858;53.190;8.596;2024-01-11T11:10:43;99.40;;;36.83;;
1721;SDS011;858;53.190;8.596;2024-01-11T11:13:12;90.57;;;33.63;;
1721;SDS011;858;53.190;8.596;2024-01-11T11:15:42;90.47;;;35.47;;
1721;SDS011;858;53.190;8.596;2024-01-11T11:18:11;88.53;;;35.63;;
1721;SDS011;858;53.190;8.596;2024-01-11T11:20:38;101.07;;;43.43;;
1721;SDS011;858;53.190;8.596;2024-01-11T11:23:07;102.20;;;42.10;;
1721;SDS011;858;53.190;8.596;2024-01-11T11:25:35;105.00;;;41.57;;
1721;SDS011;858;53.190;8.596;2024-01-11T11:28:01;95.20;;;40.93;;
1721;SDS011;858;53.190;8.596;2024-01-11T11:30:29;96.07;;;40.20;;
1721;SDS011;858;53.190;8.596;2024-01-11T11:32:58;88.70;;;36.37;;
1721;SDS011;858;53.190;8.596;2024-01-11T11:35:33;84.10;;;34.10;;
1721;SDS011;858;53.190;8.596;2024-01-11T11:37:59;91.47;;;37.23;;
1721;SDS011;858;53.190;8.596;2024-01-11T11:40:31;98.93;;;37.33;;
1721;SDS011;858;53.190;8.596;2024-01-11T11:43:00;87.70;;;37.13;;
1721;SDS011;858;53.190;8.596;2024-01-11T11:45:27;91.93;;;38.80;;
1721;SDS011;858;53.190;8.596;2024-01-11T11:47:53;96.37;;;36.70;;
1721;SDS011;858;53.190;8.596;2024-01-11T11:50:22;100.90;;;42.63;;
1721;SDS011;858;53.190;8.596;2024-01-11T11:52:53;80.83;;;33.47;;
1721;SDS011;858;53.190;8.596;2024-01-11T11:55:22;87.80;;;36.70;;
1721;SDS011;858;53.190;8.596;2024-01-11T11:57:48;84.23;;;31.50;;
1721;SDS011;858;53.190;8.596;2024-01-11T12:00:16;60.77;;;29.50;;
1721;SDS011;858;53.190;8.596;2024-01-11T12:02:43;76.60;;;30.13;;
1721;SDS011;858;53.190;8.596;2024-01-11T12:05:09;85.83;;;34.50;;
1721;SDS011;858;53.190;8.596;2024-01-11T12:07:37;80.47;;;31.77;;
1721;SDS011;858;53.190;8.596;2024-01-11T12:10:04;77.67;;;31.13;;
1721;SDS011;858;53.190;8.596;2024-01-11T12:12:31;81.00;;;30.60;;
1721;SDS011;858;53.190;8.596;2024-01-11T12:14:58;73.57;;;30.57;;
1721;SDS011;858;53.190;8.596;2024-01-11T12:17:25;75.27;;;30.83;;
1721;SDS011;858;53.190;8.596;2024-01-11T12:19:52;75.80;;;31.70;;
1721;SDS011;858;53.190;8.596;2024-01-11T12:22:18;72.67;;;31.03;;
1721;SDS011;858;53.190;8.596;2024-01-11T12:24:48;97.97;;;38.40;;
1721;SDS011;858;53.190;8.596;2024-01-11T12:27:15;99.50;;;41.47;;
1721;SDS011;858;53.190;8.596;2024-01-11T12:29:41;75.77;;;34.57;;
1721;SDS011;858;53.190;8.596;2024-01-11T12:32:08;92.20;;;36.40;;
1721;SDS011;858;53.190;8.596;2024-01-11T12:34:36;77.97;;;32.77;;
1721;SDS011;858;53.190;8.596;2024-01-11T12:37:05;70.70;;;30.77;;
1721;SDS011;858;53.190;8.596;2024-01-11T12:39:32;75.53;;;32.13;;
1721;SDS011;858;53.190;8.596;2024-01-11T12:42:00;72.33;;;28.50;;
1721;SDS011;858;53.190;8.596;2024-01-11T12:44:26;70.90;;;32.87;;
1721;SDS011;858;53.190;8.596;2024-01-11T12:46:53;95.93;;;38.53;;
1721;SDS011;858;53.190;8.596;2024-01-11T12:49:21;76.53;;;36.30;;
1721;SDS011;858;53.190;8.596;2024-01-11T12:51:49;105.50;;;43.57;;
1721;SDS011;858;53.190;8.596;2024-01-11T12:54:15;73.17;;;33.00;;
1721;SDS011;858;53.190;8.596;2024-01-11T12:56:44;78.63;;;37.10;;
1721;SDS011;858;53.190;8.596;2024-01-11T12:59:14;78.80;;;36.60;;
1721;SDS011;858;53.190;8.596;2024-01-11T13:01:41;76.67;;;28.40;;
1721;SDS011;858;53.190;8.596;2024-01-11T13:04:08;103.43;;;44.77;;
1721;SDS011;858;53.190;8.596;2024-01-11T13:06:35;86.37;;;37.70;;
1721;SDS011;858;53.190;8.596;2024-01-11T13:09:04;88.17;;;38.97;;
1721;SDS011;858;53.190;8.596;2024-01-11T13:11:33;72.73;;;33.73;;
1721;SDS011;858;53.190;8.596;2024-01-11T13:13:59;76.43;;;30.93;;
1721;SDS011;858;53.190;8.596;2024-01-11T13:16:33;75.77;;;30.80;;
1721;SDS011;858;53.190;8.596;2024-01-11T13:18:59;82.30;;;35.27;;
1721;SDS011;858;53.190;8.596;2024-01-11T13:21:26;98.40;;;44.63;;
1721;SDS011;858;53.190;8.596;2024-01-11T13:23:53;73.20;;;31.70;;
1721;SDS011;858;53.190;8.596;2024-01-11T13:26:20;56.70;;;27.90;;
1721;SDS011;858;53.190;8.596;2024-01-11T13:28:46;61.67;;;29.60;;
1721;SDS011;858;53.190;8.596;2024-01-11T13:31:14;67.13;;;29.97;;
1721;SDS011;858;53.190;8.596;2024-01-11T13:33:44;73.60;;;31.87;;
1721;SDS011;858;53.190;8.596;2024-01-11T13:36:11;64.43;;;29.73;;
1721;SDS011;858;53.190;8.596;2024-01-11T13:38:38;90.17;;;37.90;;
1721;SDS011;858;53.190;8.596;2024-01-11T13:41:04;84.90;;;42.07;;
1721;SDS011;858;53.190;8.596;2024-01-11T13:43:33;69.83;;;31.40;;
1721;SDS011;858;53.190;8.596;2024-01-11T13:46:00;76.60;;;33.43;;
1721;SDS011;858;53.190;8.596;2024-01-11T13:48:29;88.40;;;39.60;;
1721;SDS011;858;53.190;8.596;2024-01-11T13:51:01;69.30;;;34.40;;
1721;SDS011;858;53.190;8.596;2024-01-11T13:53:28;68.03;;;32.87;;
1721;SDS011;858;53.190;8.596;2024-01-11T13:55:56;69.23;;;30.73;;
1721;SDS011;858;53.190;8.596;2024-01-11T13:58:23;65.60;;;28.13;;
1721;SDS011;858;53.190;8.596;2024-01-11T14:00:49;60.13;;;28.43;;
1721;SDS011;858;53.190;8.596;2024-01-11T14:03:16;65.63;;;29.30;;
1721;SDS011;858;53.190;8.596;2024-01-11T14:05:42;66.17;;;28.43;;
1721;SDS011;858;53.190;8.596;2024-01-11T14:08:11;55.73;;;27.07;;
1721;SDS011;858;53.190;8.596;2024-01-11T14:10:37;72.57;;;36.00;;
1721;SDS011;858;53.190;8.596;2024-01-11T14:13:05;78.27;;;37.73;;
1721;SDS011;858;53.190;8.596;2024-01-11T14:15:34;73.00;;;32.50;;
1721;SDS011;858;53.190;8.596;2024-01-11T14:18:01;76.20;;;29.93;;
1721;SDS011;858;53.190;8.596;2024-01-11T14:20:28;62.27;;;27.50;;
1721;SDS011;858;53.190;8.596;2024-01-11T14:22:56;54.40;;;25.50;;
1721;SDS011;858;53.190;8.596;2024-01-11T14:25:25;68.70;;;30.83;;
1721;SDS011;858;53.190;8.596;2024-01-11T14:27:51;53.93;;;28.47;;
1721;SDS011;858;53.190;8.596;2024-01-11T14:30:19;60.03;;;26.60;;
1721;SDS011;858;53.190;8.596;2024-01-11T14:32:48;55.23;;;27.27;;
1721;SDS011;858;53.190;8.596;2024-01-11T14:35:15;54.83;;;27.47;;
1721;SDS011;858;53.190;8.596;2024-01-11T14:37:43;55.77;;;26.63;;
1721;SDS011;858;53.190;8.596;2024-01-11T14:40:11;62.53;;;27.57;;
1721;SDS011;858;53.190;8.596;2024-01-11T14:42:39;62.07;;;29.80;;
1721;SDS011;858;53.190;8.596;2024-01-11T14:45:06;70.50;;;30.33;;
1721;SDS011;858;53.190;8.596;2024-01-11T14:47:33;57.80;;;31.77;;
1721;SDS011;858;53.190;8.596;2024-01-11T14:50:00;56.43;;;28.20;;
1721;SDS011;858;53.190;8.596;2024-01-11T14:52:28;47.53;;;22.47;;
1721;SDS011;858;53.190;8.596;2024-01-11T14:54:55;57.93;;;28.40;;
1721;SDS011;858;53.190;8.596;2024-01-11T14:57:22;50.57;;;26.77;;
1721;SDS011;858;53.190;8.596;2024-01-11T14:59:50;50.10;;;28.83;;